sensor_id;sensor_type;location;lat;lon;timestamp;P1;durP1;ratioP1;P2;durP2;ratioP2
48241;SDS011;34041;51.812;4.622;2022-08-18T00:02:26;7.65;;;6.20;;
48241;SDS011;34041;51.812;4.622;2022-08-18T00:05:27;6.35;;;5.70;;
48241;SDS011;34041;51.812;4.622;2022-08-18T00:08:27;8.50;;;5.60;;
48241;SDS011;34041;51.812;4.622;2022-08-18T00:11:29;6.30;;;5.68;;
48241;SDS011;34041;51.812;4.622;2022-08-18T00:14:30;6.32;;;5.22;;
48241;SDS011;34041;51.812;4.622;2022-08-18T00:17:30;6.40;;;5.53;;
48241;SDS011;34041;51.812;4.622;2022-08-18T00:20:31;6.32;;;5.20;;
48241;SDS011;34041;51.812;4.622;2022-08-18T00:23:31;7.30;;;5.03;;
48241;SDS011;34041;51.812;4.622;2022-08-18T00:26:32;8.55;;;5.32;;
48241;SDS011;34041;51.812;4.622;2022-08-18T00:29:32;5.97;;;5.38;;
48241;SDS011;34041;51.812;4.622;2022-08-18T00:32:34;5.37;;;4.63;;
48241;SDS011;34041;51.812;4.622;2022-08-18T00:35:35;7.88;;;5.45;;
48241;SDS011;34041;51.812;4.622;2022-08-18T00:38:36;5.40;;;4.80;;
48241;SDS011;34041;51.812;4.622;2022-08-18T00:41:36;5.57;;;4.57;;
48241;SDS011;34041;51.812;4.622;2022-08-18T00:44:36;8.57;;;6.15;;
48241;SDS011;34041;51.812;4.622;2022-08-18T00:47:36;6.87;;;4.87;;
48241;SDS011;34041;51.812;4.622;2022-08-18T00:50:58;9.10;;;5.43;;
48241;SDS011;34041;51.812;4.622;2022-08-18T00:53:59;5.88;;;5.32;;
48241;SDS011;34041;51.812;4.622;2022-08-18T00:57:02;8.88;;;5.32;;
48241;SDS011;34041;51.812;4.622;2022-08-18T01:00:04;10.05;;;5.13;;
48241;SDS011;34041;51.812;4.622;2022-08-18T01:03:12;8.35;;;5.82;;
48241;SDS011;34041;51.812;4.622;2022-08-18T01:06:15;8.13;;;5.95;;
48241;SDS011;34041;51.812;4.622;2022-08-18T01:09:16;9.15;;;5.78;;
48241;SDS011;34041;51.812;4.622;2022-08-18T01:12:17;7.85;;;5.90;;
48241;SDS011;34041;51.812;4.622;2022-08-18T01:15:18;8.93;;;6.53;;
48241;SDS011;34041;51.812;4.622;2022-08-18T01:18:19;7.00;;;6.30;;
48241;SDS011;34041;51.812;4.622;2022-08-18T01:21:39;8.80;;;6.60;;
48241;SDS011;34041;51.812;4.622;2022-08-18T01:24:50;7.65;;;6.85;;
48241;SDS011;34041;51.812;4.622;2022-08-18T01:28:09;8.35;;;6.93;;
48241;SDS011;34041;51.812;4.622;2022-08-18T01:31:10;7.07;;;6.37;;
48241;SDS011;34041;51.812;4.622;2022-08-18T01:34:10;7.50;;;6.78;;
48241;SDS011;34041;51.812;4.622;2022-08-18T01:37:11;8.10;;;7.30;;
48241;SDS011;34041;51.812;4.622;2022-08-18T01:40:12;8.43;;;7.63;;
48241;SDS011;34041;51.812;4.622;2022-08-18T01:43:13;8.57;;;7.50;;
48241;SDS011;34041;51.812;4.622;2022-08-18T01:46:16;8.05;;;7.22;;
48241;SDS011;34041;51.812;4.622;2022-08-18T01:52:20;9.32;;;8.27;;
48241;SDS011;34041;51.812;4.622;2022-08-18T01:55:20;9.18;;;7.78;;
48241;SDS011;34041;51.812;4.622;2022-08-18T01:58:21;8.82;;;7.90;;
48241;SDS011;34041;51.812;4.622;2022-08-18T02:01:26;8.35;;;7.55;;
48241;SDS011;34041;51.812;4.622;2022-08-18T02:04:27;11.63;;;8.33;;
48241;SDS011;34041;51.812;4.622;2022-08-18T02:07:32;10.77;;;8.13;;
48241;SDS011;34041;51.812;4.622;2022-08-18T02:10:33;10.32;;;7.78;;
48241;SDS011;34041;51.812;4.622;2022-08-18T02:13:33;9.95;;;7.72;;
48241;SDS011;34041;51.812;4.622;2022-08-18T02:16:34;9.88;;;8.88;;
48241;SDS011;34041;51.812;4.622;2022-08-18T02:19:44;10.20;;;8.10;;
48241;SDS011;34041;51.812;4.622;2022-08-18T02:22:46;10.82;;;8.48;;
48241;SDS011;34041;51.812;4.622;2022-08-18T02:25:46;10.27;;;8.95;;
48241;SDS011;34041;51.812;4.622;2022-08-18T02:28:46;9.97;;;8.67;;
48241;SDS011;34041;51.812;4.622;2022-08-18T02:31:47;10.52;;;9.32;;
48241;SDS011;34041;51.812;4.622;2022-08-18T02:34:47;9.77;;;8.60;;
48241;SDS011;34041;51.812;4.622;2022-08-18T02:37:47;11.20;;;10.00;;
48241;SDS011;34041;51.812;4.622;2022-08-18T02:40:53;13.53;;;9.83;;
48241;SDS011;34041;51.812;4.622;2022-08-18T02:43:53;10.88;;;9.60;;
48241;SDS011;34041;51.812;4.622;2022-08-18T02:46:53;10.13;;;8.70;;
48241;SDS011;34041;51.812;4.622;2022-08-18T02:49:54;12.00;;;9.68;;
48241;SDS011;34041;51.812;4.622;2022-08-18T02:52:55;10.68;;;9.15;;
48241;SDS011;34041;51.812;4.622;2022-08-18T02:56:02;11.70;;;10.50;;
48241;SDS011;34041;51.812;4.622;2022-08-18T02:59:05;13.43;;;10.23;;
48241;SDS011;34041;51.812;4.622;2022-08-18T03:02:07;10.93;;;9.95;;
48241;SDS011;34041;51.812;4.622;2022-08-18T03:05:07;11.13;;;10.02;;
48241;SDS011;34041;51.812;4.622;2022-08-18T03:08:07;11.18;;;9.23;;
48241;SDS011;34041;51.812;4.622;2022-08-18T03:11:09;11.43;;;10.23;;
48241;SDS011;34041;51.812;4.622;2022-08-18T03:14:09;11.33;;;10.13;;
48241;SDS011;34041;51.812;4.622;2022-08-18T03:17:10;10.68;;;9.30;;
48241;SDS011;34041;51.812;4.622;2022-08-18T03:20:12;14.25;;;10.48;;
48241;SDS011;34041;51.812;4.622;2022-08-18T03:23:12;13.10;;;10.98;;
48241;SDS011;34041;51.812;4.622;2022-08-18T03:26:14;11.20;;;10.13;;
48241;SDS011;34041;51.812;4.622;2022-08-18T03:29:14;12.10;;;10.15;;
48241;SDS011;34041;51.812;4.622;2022-08-18T03:32:14;11.97;;;10.67;;
48241;SDS011;34041;51.812;4.622;2022-08-18T03:35:15;12.00;;;10.20;;
48241;SDS011;34041;51.812;4.622;2022-08-18T03:38:15;12.00;;;10.80;;
48241;SDS011;34041;51.812;4.622;2022-08-18T03:41:17;9.95;;;8.02;;
48241;SDS011;34041;51.812;4.622;2022-08-18T03:44:17;12.25;;;9.32;;
48241;SDS011;34041;51.812;4.622;2022-08-18T03:47:18;12.57;;;10.87;;
48241;SDS011;34041;51.812;4.622;2022-08-18T03:50:18;12.60;;;11.30;;
48241;SDS011;34041;51.812;4.622;2022-08-18T03:53:18;12.57;;;10.90;;
48241;SDS011;34041;51.812;4.622;2022-08-18T03:56:20;12.05;;;10.55;;
48241;SDS011;34041;51.812;4.622;2022-08-18T03:59:22;17.10;;;10.65;;
48241;SDS011;34041;51.812;4.622;2022-08-18T04:02:22;13.40;;;10.43;;
48241;SDS011;34041;51.812;4.622;2022-08-18T04:05:22;12.03;;;10.83;;
48241;SDS011;34041;51.812;4.622;2022-08-18T04:08:23;14.57;;;11.40;;
48241;SDS011;34041;51.812;4.622;2022-08-18T04:11:23;11.43;;;10.37;;
48241;SDS011;34041;51.812;4.622;2022-08-18T04:14:24;12.07;;;9.80;;
48241;SDS011;34041;51.812;4.622;2022-08-18T04:17:29;11.30;;;10.10;;
48241;SDS011;34041;51.812;4.622;2022-08-18T04:20:30;10.48;;;9.27;;
48241;SDS011;34041;51.812;4.622;2022-08-18T04:23:35;8.93;;;7.88;;
48241;SDS011;34041;51.812;4.622;2022-08-18T04:26:37;11.55;;;10.15;;
48241;SDS011;34041;51.812;4.622;2022-08-18T04:29:38;11.02;;;9.65;;
48241;SDS011;34041;51.812;4.622;2022-08-18T04:32:38;11.20;;;9.37;;
48241;SDS011;34041;51.812;4.622;2022-08-18T04:35:38;11.33;;;9.93;;
48241;SDS011;34041;51.812;4.622;2022-08-18T04:38:39;12.65;;;9.90;;
48241;SDS011;34041;51.812;4.622;2022-08-18T04:41:42;10.93;;;8.75;;
48241;SDS011;34041;51.812;4.622;2022-08-18T04:44:42;9.13;;;8.25;;
48241;SDS011;34041;51.812;4.622;2022-08-18T04:47:42;10.98;;;8.75;;
48241;SDS011;34041;51.812;4.622;2022-08-18T04:50:43;10.30;;;9.23;;
48241;SDS011;34041;51.812;4.622;2022-08-18T04:53:43;13.23;;;9.00;;
48241;SDS011;34041;51.812;4.622;2022-08-18T04:56:44;16.90;;;9.23;;
48241;SDS011;34041;51.812;4.622;2022-08-18T04:59:45;19.77;;;9.70;;
48241;SDS011;34041;51.812;4.622;2022-08-18T05:02:45;15.05;;;9.88;;
48241;SDS011;34041;51.812;4.622;2022-08-18T05:05:46;13.77;;;9.27;;
48241;SDS011;34041;51.812;4.622;2022-08-18T05:08:46;16.03;;;8.30;;
48241;SDS011;34041;51.812;4.622;2022-08-18T05:11:49;12.70;;;8.75;;
48241;SDS011;34041;51.812;4.622;2022-08-18T05:14:50;17.00;;;8.93;;
48241;SDS011;34041;51.812;4.622;2022-08-18T05:17:52;12.98;;;7.70;;
48241;SDS011;34041;51.812;4.622;2022-08-18T05:20:54;12.03;;;6.73;;
48241;SDS011;34041;51.812;4.622;2022-08-18T05:23:55;9.95;;;7.70;;
48241;SDS011;34041;51.812;4.622;2022-08-18T05:26:55;10.85;;;6.70;;
48241;SDS011;34041;51.812;4.622;2022-08-18T05:29:55;11.07;;;6.40;;
48241;SDS011;34041;51.812;4.622;2022-08-18T05:32:56;9.43;;;6.32;;
48241;SDS011;34041;51.812;4.622;2022-08-18T05:36:01;8.55;;;6.05;;
48241;SDS011;34041;51.812;4.622;2022-08-18T05:39:05;11.10;;;6.43;;
48241;SDS011;34041;51.812;4.622;2022-08-18T05:42:11;10.20;;;5.80;;
48241;SDS011;34041;51.812;4.622;2022-08-18T05:45:14;7.88;;;6.00;;
48241;SDS011;34041;51.812;4.622;2022-08-18T05:48:15;7.82;;;5.57;;
48241;SDS011;34041;51.812;4.622;2022-08-18T05:51:17;10.97;;;5.77;;
48241;SDS011;34041;51.812;4.622;2022-08-18T05:54:20;10.10;;;5.60;;
48241;SDS011;34041;51.812;4.622;2022-08-18T05:57:44;6.15;;;5.28;;
48241;SDS011;34041;51.812;4.622;2022-08-18T06:00:49;8.63;;;5.82;;
48241;SDS011;34041;51.812;4.622;2022-08-18T06:03:53;7.50;;;4.43;;
48241;SDS011;34041;51.812;4.622;2022-08-18T06:06:55;7.45;;;6.15;;
48241;SDS011;34041;51.812;4.622;2022-08-18T06:09:56;8.27;;;5.68;;
48241;SDS011;34041;51.812;4.622;2022-08-18T06:12:57;9.93;;;5.43;;
48241;SDS011;34041;51.812;4.622;2022-08-18T06:16:01;7.32;;;4.60;;
48241;SDS011;34041;51.812;4.622;2022-08-18T06:19:18;7.25;;;4.50;;
48241;SDS011;34041;51.812;4.622;2022-08-18T06:22:38;6.88;;;4.88;;
48241;SDS011;34041;51.812;4.622;2022-08-18T06:35:28;8.48;;;5.15;;
48241;SDS011;34041;51.812;4.622;2022-08-18T06:41:43;7.00;;;4.60;;
48241;SDS011;34041;51.812;4.622;2022-08-18T06:44:45;7.75;;;4.93;;
48241;SDS011;34041;51.812;4.622;2022-08-18T06:47:55;8.07;;;4.65;;
48241;SDS011;34041;51.812;4.622;2022-08-18T06:50:59;5.75;;;4.57;;
48241;SDS011;34041;51.812;4.622;2022-08-18T06:54:04;5.43;;;4.05;;
48241;SDS011;34041;51.812;4.622;2022-08-18T06:57:05;4.95;;;4.15;;
48241;SDS011;34041;51.812;4.622;2022-08-18T07:00:09;5.40;;;4.13;;
48241;SDS011;34041;51.812;4.622;2022-08-18T07:03:20;5.43;;;3.88;;
48241;SDS011;34041;51.812;4.622;2022-08-18T07:09:22;5.37;;;4.03;;
48241;SDS011;34041;51.812;4.622;2022-08-18T07:12:24;4.88;;;3.88;;
48241;SDS011;34041;51.812;4.622;2022-08-18T07:15:25;5.25;;;3.65;;
48241;SDS011;34041;51.812;4.622;2022-08-18T07:18:26;4.50;;;3.70;;
48241;SDS011;34041;51.812;4.622;2022-08-18T07:21:28;5.35;;;3.80;;
48241;SDS011;34041;51.812;4.622;2022-08-18T07:24:30;6.85;;;4.15;;
48241;SDS011;34041;51.812;4.622;2022-08-18T07:30:37;6.25;;;3.10;;
48241;SDS011;34041;51.812;4.622;2022-08-18T07:33:38;5.38;;;4.03;;
48241;SDS011;34041;51.812;4.622;2022-08-18T07:36:47;4.88;;;3.20;;
48241;SDS011;34041;51.812;4.622;2022-08-18T07:43:03;4.97;;;3.22;;
48241;SDS011;34041;51.812;4.622;2022-08-18T07:46:06;6.47;;;3.88;;
48241;SDS011;34041;51.812;4.622;2022-08-18T07:49:09;4.15;;;3.05;;
48241;SDS011;34041;51.812;4.622;2022-08-18T07:55:25;4.07;;;3.53;;
48241;SDS011;34041;51.812;4.622;2022-08-18T07:58:36;5.13;;;3.80;;
48241;SDS011;34041;51.812;4.622;2022-08-18T08:05:19;4.63;;;3.72;;
48241;SDS011;34041;51.812;4.622;2022-08-18T08:14:36;3.33;;;2.83;;
48241;SDS011;34041;51.812;4.622;2022-08-18T08:17:41;5.00;;;3.22;;
48241;SDS011;34041;51.812;4.622;2022-08-18T08:20:44;3.85;;;2.97;;
48241;SDS011;34041;51.812;4.622;2022-08-18T08:30:09;3.50;;;2.90;;
48241;SDS011;34041;51.812;4.622;2022-08-18T08:36:24;5.00;;;2.92;;
48241;SDS011;34041;51.812;4.622;2022-08-18T08:39:31;3.72;;;2.55;;
48241;SDS011;34041;51.812;4.622;2022-08-18T08:42:40;4.13;;;2.97;;
48241;SDS011;34041;51.812;4.622;2022-08-18T08:45:44;4.22;;;2.70;;
48241;SDS011;34041;51.812;4.622;2022-08-18T08:48:51;4.53;;;3.38;;
48241;SDS011;34041;51.812;4.622;2022-08-18T08:51:57;3.10;;;2.58;;
48241;SDS011;34041;51.812;4.622;2022-08-18T08:58:15;4.22;;;3.13;;
48241;SDS011;34041;51.812;4.622;2022-08-18T09:01:30;5.22;;;2.70;;
48241;SDS011;34041;51.812;4.622;2022-08-18T09:04:48;4.60;;;2.90;;
48241;SDS011;34041;51.812;4.622;2022-08-18T09:27:12;3.22;;;2.63;;
48241;SDS011;34041;51.812;4.622;2022-08-18T09:43:30;3.85;;;2.63;;
48241;SDS011;34041;51.812;4.622;2022-08-18T09:49:43;6.18;;;2.70;;
48241;SDS011;34041;51.812;4.622;2022-08-18T09:52:46;4.63;;;2.73;;
48241;SDS011;34041;51.812;4.622;2022-08-18T09:55:54;3.33;;;2.58;;
48241;SDS011;34041;51.812;4.622;2022-08-18T09:58:56;5.10;;;2.95;;
48241;SDS011;34041;51.812;4.622;2022-08-18T10:14:27;3.25;;;2.85;;
48241;SDS011;34041;51.812;4.622;2022-08-18T10:27:01;3.50;;;2.97;;
48241;SDS011;34041;51.812;4.622;2022-08-18T10:30:02;3.78;;;2.58;;
48241;SDS011;34041;51.812;4.622;2022-08-18T10:33:06;2.70;;;2.17;;
48241;SDS011;34041;51.812;4.622;2022-08-18T10:36:07;3.55;;;2.45;;
48241;SDS011;34041;51.812;4.622;2022-08-18T10:39:12;3.47;;;2.30;;
48241;SDS011;34041;51.812;4.622;2022-08-18T10:42:21;3.13;;;2.63;;
48241;SDS011;34041;51.812;4.622;2022-08-18T10:48:27;3.78;;;2.60;;
48241;SDS011;34041;51.812;4.622;2022-08-18T10:51:34;3.30;;;2.47;;
48241;SDS011;34041;51.812;4.622;2022-08-18T11:01:00;3.73;;;2.43;;
48241;SDS011;34041;51.812;4.622;2022-08-18T11:07:09;3.17;;;2.00;;
48241;SDS011;34041;51.812;4.622;2022-08-18T11:10:18;2.53;;;2.03;;
48241;SDS011;34041;51.812;4.622;2022-08-18T11:19:23;3.43;;;2.50;;
48241;SDS011;34041;51.812;4.622;2022-08-18T11:22:25;3.03;;;2.17;;
48241;SDS011;34041;51.812;4.622;2022-08-18T11:25:30;2.45;;;2.05;;
48241;SDS011;34041;51.812;4.622;2022-08-18T11:28:31;3.30;;;2.50;;
48241;SDS011;34041;51.812;4.622;2022-08-18T11:31:31;3.03;;;2.13;;
48241;SDS011;34041;51.812;4.622;2022-08-18T11:34:36;2.85;;;2.10;;
48241;SDS011;34041;51.812;4.622;2022-08-18T11:40:41;4.50;;;2.35;;
48241;SDS011;34041;51.812;4.622;2022-08-18T11:43:41;2.75;;;2.28;;
48241;SDS011;34041;51.812;4.622;2022-08-18T11:46:42;2.57;;;1.97;;
48241;SDS011;34041;51.812;4.622;2022-08-18T11:49:53;2.30;;;1.60;;
48241;SDS011;34041;51.812;4.622;2022-08-18T11:52:54;2.53;;;2.00;;
48241;SDS011;34041;51.812;4.622;2022-08-18T11:59:06;4.47;;;2.55;;
48241;SDS011;34041;51.812;4.622;2022-08-18T12:02:06;3.08;;;2.10;;
48241;SDS011;34041;51.812;4.622;2022-08-18T12:05:07;4.47;;;2.50;;
48241;SDS011;34041;51.812;4.622;2022-08-18T12:08:17;3.30;;;1.80;;
48241;SDS011;34041;51.812;4.622;2022-08-18T12:11:22;3.05;;;2.20;;
48241;SDS011;34041;51.812;4.622;2022-08-18T12:14:25;3.20;;;2.40;;
48241;SDS011;34041;51.812;4.622;2022-08-18T12:17:26;3.72;;;2.10;;
48241;SDS011;34041;51.812;4.622;2022-08-18T12:20:27;2.80;;;1.90;;
48241;SDS011;34041;51.812;4.622;2022-08-18T12:23:27;3.30;;;2.40;;
48241;SDS011;34041;51.812;4.622;2022-08-18T12:26:27;3.78;;;2.08;;
48241;SDS011;34041;51.812;4.622;2022-08-18T12:29:27;3.07;;;1.87;;
48241;SDS011;34041;51.812;4.622;2022-08-18T12:32:28;2.60;;;1.77;;
48241;SDS011;34041;51.812;4.622;2022-08-18T12:35:29;4.78;;;2.40;;
48241;SDS011;34041;51.812;4.622;2022-08-18T12:38:30;3.00;;;2.17;;
48241;SDS011;34041;51.812;4.622;2022-08-18T12:41:30;2.83;;;1.80;;
48241;SDS011;34041;51.812;4.622;2022-08-18T12:44:31;2.00;;;1.50;;
48241;SDS011;34041;51.812;4.622;2022-08-18T12:47:31;3.47;;;1.97;;
48241;SDS011;34041;51.812;4.622;2022-08-18T12:50:31;3.10;;;2.37;;
48241;SDS011;34041;51.812;4.622;2022-08-18T12:53:31;2.88;;;2.10;;
48241;SDS011;34041;51.812;4.622;2022-08-18T12:56:32;2.35;;;1.95;;
48241;SDS011;34041;51.812;4.622;2022-08-18T12:59:33;2.50;;;2.13;;
48241;SDS011;34041;51.812;4.622;2022-08-18T13:02:34;2.97;;;2.00;;
48241;SDS011;34041;51.812;4.622;2022-08-18T13:05:35;2.77;;;2.20;;
48241;SDS011;34041;51.812;4.622;2022-08-18T13:08:36;3.30;;;2.38;;
48241;SDS011;34041;51.812;4.622;2022-08-18T13:11:36;3.67;;;2.38;;
48241;SDS011;34041;51.812;4.622;2022-08-18T13:14:37;3.05;;;2.40;;
48241;SDS011;34041;51.812;4.622;2022-08-18T13:17:37;3.33;;;2.42;;
48241;SDS011;34041;51.812;4.622;2022-08-18T13:20:37;3.93;;;2.17;;
48241;SDS011;34041;51.812;4.622;2022-08-18T13:23:38;3.92;;;2.40;;
48241;SDS011;34041;51.812;4.622;2022-08-18T13:26:40;3.30;;;2.55;;
48241;SDS011;34041;51.812;4.622;2022-08-18T13:29:41;2.88;;;2.20;;
48241;SDS011;34041;51.812;4.622;2022-08-18T13:32:41;3.73;;;2.27;;
48241;SDS011;34041;51.812;4.622;2022-08-18T13:35:42;3.42;;;2.28;;
48241;SDS011;34041;51.812;4.622;2022-08-18T13:38:43;2.95;;;2.42;;
48241;SDS011;34041;51.812;4.622;2022-08-18T13:41:44;3.50;;;2.20;;
48241;SDS011;34041;51.812;4.622;2022-08-18T13:44:45;4.05;;;2.83;;
48241;SDS011;34041;51.812;4.622;2022-08-18T13:47:46;4.28;;;1.98;;
48241;SDS011;34041;51.812;4.622;2022-08-18T13:50:46;3.10;;;2.38;;
48241;SDS011;34041;51.812;4.622;2022-08-18T13:53:46;4.47;;;2.17;;
48241;SDS011;34041;51.812;4.622;2022-08-18T13:56:47;2.67;;;2.20;;
48241;SDS011;34041;51.812;4.622;2022-08-18T13:59:47;2.80;;;2.00;;
48241;SDS011;34041;51.812;4.622;2022-08-18T14:02:48;3.97;;;1.93;;
48241;SDS011;34041;51.812;4.622;2022-08-18T14:05:51;4.53;;;2.65;;
48241;SDS011;34041;51.812;4.622;2022-08-18T14:08:57;2.83;;;2.30;;
48241;SDS011;34041;51.812;4.622;2022-08-18T14:11:57;3.28;;;2.47;;
48241;SDS011;34041;51.812;4.622;2022-08-18T14:14:58;3.25;;;2.53;;
48241;SDS011;34041;51.812;4.622;2022-08-18T14:17:58;3.50;;;2.63;;
48241;SDS011;34041;51.812;4.622;2022-08-18T14:20:58;3.50;;;2.37;;
48241;SDS011;34041;51.812;4.622;2022-08-18T14:24:17;3.10;;;2.20;;
48241;SDS011;34041;51.812;4.622;2022-08-18T14:27:37;2.45;;;2.08;;
48241;SDS011;34041;51.812;4.622;2022-08-18T14:30:37;4.63;;;2.88;;
48241;SDS011;34041;51.812;4.622;2022-08-18T14:33:38;2.60;;;2.33;;
48241;SDS011;34041;51.812;4.622;2022-08-18T14:36:39;3.97;;;3.38;;
48241;SDS011;34041;51.812;4.622;2022-08-18T14:39:39;3.85;;;2.35;;
48241;SDS011;34041;51.812;4.622;2022-08-18T14:42:40;3.83;;;2.38;;
48241;SDS011;34041;51.812;4.622;2022-08-18T14:45:42;5.32;;;2.75;;
48241;SDS011;34041;51.812;4.622;2022-08-18T14:48:46;3.22;;;2.38;;
48241;SDS011;34041;51.812;4.622;2022-08-18T14:51:46;3.25;;;2.78;;
48241;SDS011;34041;51.812;4.622;2022-08-18T14:54:47;3.92;;;2.70;;
48241;SDS011;34041;51.812;4.622;2022-08-18T14:57:47;3.33;;;2.35;;
48241;SDS011;34041;51.812;4.622;2022-08-18T15:00:48;2.63;;;2.20;;
48241;SDS011;34041;51.812;4.622;2022-08-18T15:03:48;3.37;;;2.50;;
48241;SDS011;34041;51.812;4.622;2022-08-18T15:06:49;4.10;;;2.57;;
48241;SDS011;34041;51.812;4.622;2022-08-18T15:09:49;3.60;;;2.85;;
48241;SDS011;34041;51.812;4.622;2022-08-18T15:12:50;3.45;;;2.47;;
48241;SDS011;34041;51.812;4.622;2022-08-18T15:15:50;2.72;;;1.85;;
48241;SDS011;34041;51.812;4.622;2022-08-18T15:18:50;3.83;;;2.63;;
48241;SDS011;34041;51.812;4.622;2022-08-18T15:21:51;4.03;;;2.50;;
48241;SDS011;34041;51.812;4.622;2022-08-18T15:25:09;5.25;;;2.92;;
48241;SDS011;34041;51.812;4.622;2022-08-18T15:28:28;4.10;;;2.67;;
48241;SDS011;34041;51.812;4.622;2022-08-18T15:31:29;6.43;;;2.42;;
48241;SDS011;34041;51.812;4.622;2022-08-18T15:34:29;4.17;;;2.37;;
48241;SDS011;34041;51.812;4.622;2022-08-18T15:37:32;4.90;;;3.05;;
48241;SDS011;34041;51.812;4.622;2022-08-18T15:40:32;5.20;;;2.65;;
48241;SDS011;34041;51.812;4.622;2022-08-18T15:43:32;2.80;;;2.20;;
48241;SDS011;34041;51.812;4.622;2022-08-18T15:46:33;4.93;;;2.77;;
48241;SDS011;34041;51.812;4.622;2022-08-18T15:49:34;4.70;;;2.40;;
48241;SDS011;34041;51.812;4.622;2022-08-18T15:52:34;3.30;;;2.43;;
48241;SDS011;34041;51.812;4.622;2022-08-18T15:55:34;3.13;;;2.43;;
48241;SDS011;34041;51.812;4.622;2022-08-18T15:58:37;5.72;;;2.38;;
48241;SDS011;34041;51.812;4.622;2022-08-18T16:01:37;5.80;;;2.03;;
48241;SDS011;34041;51.812;4.622;2022-08-18T16:04:38;3.20;;;2.30;;
48241;SDS011;34041;51.812;4.622;2022-08-18T16:07:39;2.45;;;2.15;;
48241;SDS011;34041;51.812;4.622;2022-08-18T16:10:42;4.30;;;2.58;;
48241;SDS011;34041;51.812;4.622;2022-08-18T16:13:43;4.90;;;2.63;;
48241;SDS011;34041;51.812;4.622;2022-08-18T16:16:44;3.80;;;2.40;;
48241;SDS011;34041;51.812;4.622;2022-08-18T16:19:44;3.50;;;2.63;;
48241;SDS011;34041;51.812;4.622;2022-08-18T16:22:45;3.72;;;2.47;;
48241;SDS011;34041;51.812;4.622;2022-08-18T16:25:46;4.78;;;2.42;;
48241;SDS011;34041;51.812;4.622;2022-08-18T16:28:47;5.13;;;2.72;;
48241;SDS011;34041;51.812;4.622;2022-08-18T16:31:49;4.60;;;2.70;;
48241;SDS011;34041;51.812;4.622;2022-08-18T16:34:50;3.43;;;2.47;;
48241;SDS011;34041;51.812;4.622;2022-08-18T16:37:51;5.10;;;2.53;;
48241;SDS011;34041;51.812;4.622;2022-08-18T16:40:51;5.33;;;2.90;;
48241;SDS011;34041;51.812;4.622;2022-08-18T16:43:52;6.97;;;2.70;;
48241;SDS011;34041;51.812;4.622;2022-08-18T16:46:52;5.65;;;2.55;;
48241;SDS011;34041;51.812;4.622;2022-08-18T16:49:52;3.38;;;2.50;;
48241;SDS011;34041;51.812;4.622;2022-08-18T16:52:53;3.08;;;2.10;;
48241;SDS011;34041;51.812;4.622;2022-08-18T16:55:53;6.32;;;2.58;;
48241;SDS011;34041;51.812;4.622;2022-08-18T16:58:53;5.00;;;2.87;;
48241;SDS011;34041;51.812;4.622;2022-08-18T17:02:12;4.03;;;2.65;;
48241;SDS011;34041;51.812;4.622;2022-08-18T17:05:31;3.75;;;2.42;;
48241;SDS011;34041;51.812;4.622;2022-08-18T17:08:33;5.45;;;2.70;;
48241;SDS011;34041;51.812;4.622;2022-08-18T17:11:34;4.97;;;3.28;;
48241;SDS011;34041;51.812;4.622;2022-08-18T17:14:35;4.22;;;2.30;;
48241;SDS011;34041;51.812;4.622;2022-08-18T17:17:35;3.63;;;2.40;;
48241;SDS011;34041;51.812;4.622;2022-08-18T17:20:36;5.47;;;2.63;;
48241;SDS011;34041;51.812;4.622;2022-08-18T17:23:36;3.07;;;2.50;;
48241;SDS011;34041;51.812;4.622;2022-08-18T17:33:04;6.00;;;2.90;;
48241;SDS011;34041;51.812;4.622;2022-08-18T17:36:09;4.53;;;2.42;;
48241;SDS011;34041;51.812;4.622;2022-08-18T17:42:11;5.32;;;2.63;;
48241;SDS011;34041;51.812;4.622;2022-08-18T17:45:29;6.03;;;2.35;;
48241;SDS011;34041;51.812;4.622;2022-08-18T17:48:31;5.60;;;2.53;;
48241;SDS011;34041;51.812;4.622;2022-08-18T17:51:42;3.40;;;2.30;;
48241;SDS011;34041;51.812;4.622;2022-08-18T17:54:45;4.93;;;2.65;;
48241;SDS011;34041;51.812;4.622;2022-08-18T17:57:53;3.78;;;2.15;;
48241;SDS011;34041;51.812;4.622;2022-08-18T18:00:55;6.85;;;2.53;;
48241;SDS011;34041;51.812;4.622;2022-08-18T18:03:56;4.55;;;2.00;;
48241;SDS011;34041;51.812;4.622;2022-08-18T18:06:56;3.93;;;2.40;;
48241;SDS011;34041;51.812;4.622;2022-08-18T18:10:04;3.63;;;2.27;;
48241;SDS011;34041;51.812;4.622;2022-08-18T18:16:19;2.80;;;2.30;;
48241;SDS011;34041;51.812;4.622;2022-08-18T18:19:20;5.53;;;2.78;;
48241;SDS011;34041;51.812;4.622;2022-08-18T18:22:26;3.35;;;2.17;;
48241;SDS011;34041;51.812;4.622;2022-08-18T18:25:30;3.88;;;2.33;;
48241;SDS011;34041;51.812;4.622;2022-08-18T18:31:32;6.20;;;3.03;;
48241;SDS011;34041;51.812;4.622;2022-08-18T18:34:37;4.28;;;2.72;;
48241;SDS011;34041;51.812;4.622;2022-08-18T18:37:42;3.78;;;2.78;;
48241;SDS011;34041;51.812;4.622;2022-08-18T18:40:53;3.28;;;2.33;;
48241;SDS011;34041;51.812;4.622;2022-08-18T18:44:03;5.30;;;2.95;;
48241;SDS011;34041;51.812;4.622;2022-08-18T18:47:23;3.95;;;2.38;;
48241;SDS011;34041;51.812;4.622;2022-08-18T18:50:31;3.90;;;2.83;;
48241;SDS011;34041;51.812;4.622;2022-08-18T18:53:41;3.55;;;2.20;;
48241;SDS011;34041;51.812;4.622;2022-08-18T18:56:51;3.60;;;2.17;;
48241;SDS011;34041;51.812;4.622;2022-08-18T19:03:18;5.72;;;2.83;;
48241;SDS011;34041;51.812;4.622;2022-08-18T19:06:24;4.18;;;2.75;;
48241;SDS011;34041;51.812;4.622;2022-08-18T19:09:39;5.57;;;2.53;;
48241;SDS011;34041;51.812;4.622;2022-08-18T19:12:51;3.78;;;2.75;;
48241;SDS011;34041;51.812;4.622;2022-08-18T19:15:54;4.50;;;2.85;;
48241;SDS011;34041;51.812;4.622;2022-08-18T19:18:56;4.57;;;2.40;;
48241;SDS011;34041;51.812;4.622;2022-08-18T19:32:00;4.70;;;2.90;;
48241;SDS011;34041;51.812;4.622;2022-08-18T19:34:50;7.38;;;3.33;;
48241;SDS011;34041;51.812;4.622;2022-08-18T19:38:02;6.07;;;3.03;;
48241;SDS011;34041;51.812;4.622;2022-08-18T19:47:35;4.15;;;2.83;;
48241;SDS011;34041;51.812;4.622;2022-08-18T19:50:57;4.70;;;2.75;;
48241;SDS011;34041;51.812;4.622;2022-08-18T19:54:12;6.55;;;3.63;;
48241;SDS011;34041;51.812;4.622;2022-08-18T19:57:26;5.43;;;2.85;;
48241;SDS011;34041;51.812;4.622;2022-08-18T20:13:13;6.05;;;3.30;;
48241;SDS011;34041;51.812;4.622;2022-08-18T20:22:37;4.85;;;3.03;;
48241;SDS011;34041;51.812;4.622;2022-08-18T20:25:40;6.60;;;3.05;;
48241;SDS011;34041;51.812;4.622;2022-08-18T20:28:41;4.40;;;3.03;;
48241;SDS011;34041;51.812;4.622;2022-08-18T20:31:43;4.97;;;2.67;;
48241;SDS011;34041;51.812;4.622;2022-08-18T20:34:46;7.68;;;2.95;;
48241;SDS011;34041;51.812;4.622;2022-08-18T20:37:47;5.55;;;3.13;;
48241;SDS011;34041;51.812;4.622;2022-08-18T20:40:48;5.13;;;2.97;;
48241;SDS011;34041;51.812;4.622;2022-08-18T20:43:50;5.53;;;2.83;;
48241;SDS011;34041;51.812;4.622;2022-08-18T20:52:56;4.07;;;2.90;;
48241;SDS011;34041;51.812;4.622;2022-08-18T20:59:15;5.22;;;3.05;;
48241;SDS011;34041;51.812;4.622;2022-08-18T21:02:25;5.20;;;3.33;;
48241;SDS011;34041;51.812;4.622;2022-08-18T21:05:27;4.68;;;3.28;;
48241;SDS011;34041;51.812;4.622;2022-08-18T21:08:31;4.30;;;2.90;;
48241;SDS011;34041;51.812;4.622;2022-08-18T21:11:37;8.30;;;2.80;;
48241;SDS011;34041;51.812;4.622;2022-08-18T21:14:38;4.45;;;3.08;;
48241;SDS011;34041;51.812;4.622;2022-08-18T21:17:38;7.73;;;3.43;;
48241;SDS011;34041;51.812;4.622;2022-08-18T21:20:39;3.83;;;2.55;;
48241;SDS011;34041;51.812;4.622;2022-08-18T21:23:40;4.13;;;2.80;;
48241;SDS011;34041;51.812;4.622;2022-08-18T21:26:40;4.45;;;3.03;;
48241;SDS011;34041;51.812;4.622;2022-08-18T21:29:44;4.70;;;2.97;;
48241;SDS011;34041;51.812;4.622;2022-08-18T21:32:46;3.55;;;2.78;;
48241;SDS011;34041;51.812;4.622;2022-08-18T21:35:46;4.05;;;3.05;;
48241;SDS011;34041;51.812;4.622;2022-08-18T21:38:48;5.40;;;3.50;;